createdAt,value
2018-12-04T00:01:13.554Z,1.33
2018-12-04T00:03:44.221Z,1.10
2018-12-04T00:06:14.397Z,1.10
2018-12-04T00:08:44.642Z,1.33
2018-12-04T00:11:15.653Z,1.27
2018-12-04T00:13:46.020Z,1.10
2018-12-04T00:16:17.156Z,0.97
2018-12-04T00:18:47.979Z,1.50
2018-12-04T00:21:18.200Z,1.13
2018-12-04T00:23:48.748Z,1.60
2018-12-04T00:26:20.155Z,1.63
2018-12-04T00:28:50.470Z,1.90
2018-12-04T00:31:21.633Z,1.70
2018-12-04T00:33:52.076Z,1.70
2018-12-04T00:36:22.081Z,1.43
2018-12-04T00:38:52.808Z,1.67
2018-12-04T00:41:23.120Z,1.53
2018-12-04T00:43:53.473Z,1.43
2018-12-04T00:46:24.308Z,1.57
2018-12-04T00:48:54.571Z,1.60
2018-12-04T00:51:24.425Z,1.50
2018-12-04T00:53:55.901Z,1.50
2018-12-04T00:56:27.249Z,1.67
2018-12-04T00:58:57.778Z,1.80
2018-12-04T01:01:28.002Z,1.80
2018-12-04T01:03:58.468Z,1.80
2018-12-04T01:06:28.669Z,1.53
2018-12-04T01:09:00.421Z,1.30
2018-12-04T01:11:30.627Z,1.53
2018-12-04T01:14:01.855Z,1.60
2018-12-04T01:16:32.288Z,1.77
2018-12-04T01:19:02.570Z,1.30
2018-12-04T01:21:33.409Z,1.67
2018-12-04T01:24:04.947Z,1.40
2018-12-04T01:26:35.121Z,1.50
2018-12-04T01:29:05.549Z,1.40
2018-12-04T01:31:36.897Z,1.60
2018-12-04T01:34:07.635Z,1.60
2018-12-04T01:36:38.283Z,1.70
2018-12-04T01:39:09.487Z,1.60
2018-12-04T01:41:39.627Z,2.07
2018-12-04T01:44:09.872Z,1.30
2018-12-04T01:46:40.644Z,1.30
2018-12-04T01:49:12.598Z,1.53
2018-12-04T01:51:43.420Z,1.10
2018-12-04T01:54:14.113Z,1.10
2018-12-04T01:56:44.153Z,1.10
2018-12-04T01:59:15.241Z,1.30
2018-12-04T02:01:46.292Z,0.80
2018-12-04T02:04:16.853Z,0.63
2018-12-04T02:06:46.881Z,0.90
2018-12-04T02:09:17.790Z,0.80
2018-12-04T02:11:48.253Z,0.90
2018-12-04T02:14:18.421Z,1.40
2018-12-04T02:16:48.585Z,1.30
2018-12-04T02:19:19.056Z,1.40
2018-12-04T02:21:49.944Z,1.10
2018-12-04T02:24:20.837Z,1.00
2018-12-04T02:26:50.948Z,1.20
2018-12-04T02:29:21.206Z,1.50
2018-12-04T02:31:51.548Z,1.50
2018-12-04T02:34:22.597Z,1.50
2018-12-04T02:36:53.184Z,1.30
2018-12-04T02:39:23.966Z,1.43
2018-12-04T02:41:55.415Z,1.13
2018-12-04T02:44:25.544Z,1.43
2018-12-04T02:46:55.760Z,1.30
2018-12-04T02:49:25.950Z,1.20
2018-12-04T02:51:56.802Z,1.23
2018-12-04T02:54:27.524Z,1.30
2018-12-04T02:56:58.704Z,1.10
2018-12-04T02:59:29.269Z,1.03
2018-12-04T03:01:59.479Z,0.90
2018-12-04T03:04:30.541Z,1.00
2018-12-04T03:07:01.733Z,0.80
2018-12-04T03:09:31.855Z,0.83
2018-12-04T03:12:02.929Z,0.80
2018-12-04T03:14:34.459Z,0.80
2018-12-04T03:17:05.285Z,0.70
2018-12-04T03:19:35.867Z,0.90
2018-12-04T03:22:06.869Z,0.60
2018-12-04T03:24:37.085Z,0.70
2018-12-04T03:27:07.608Z,0.90
2018-12-04T03:29:37.895Z,0.77
2018-12-04T03:32:07.981Z,0.80
2018-12-04T03:34:39.153Z,0.90
2018-12-04T03:37:09.392Z,1.10
2018-12-04T03:39:40.248Z,0.80
2018-12-04T03:42:11.390Z,0.90
2018-12-04T03:44:42.238Z,1.10
2018-12-04T03:47:13.375Z,0.90
2018-12-04T03:49:43.522Z,1.10
2018-12-04T03:52:14.075Z,1.03
2018-12-04T03:54:44.123Z,0.83
2018-12-04T03:57:14.898Z,1.07
2018-12-04T03:59:45.529Z,1.00
2018-12-04T04:02:15.971Z,0.80
2018-12-04T04:04:46.106Z,0.90
2018-12-04T04:07:16.797Z,0.80
2018-12-04T04:09:46.990Z,0.77
2018-12-04T04:12:21.353Z,0.70
2018-12-04T04:14:52.447Z,0.90
2018-12-04T04:17:22.492Z,0.70
2018-12-04T04:19:53.034Z,0.80
2018-12-04T04:22:23.362Z,0.80
2018-12-04T04:24:53.894Z,0.70
2018-12-04T04:27:24.224Z,0.90
2018-12-04T04:29:54.918Z,1.10
2018-12-04T04:32:25.116Z,1.00
2018-12-04T04:34:55.306Z,1.20
2018-12-04T04:37:26.354Z,1.73
2018-12-04T04:39:56.513Z,0.70
2018-12-04T04:42:26.966Z,1.00
2018-12-04T04:44:58.209Z,1.13
2018-12-04T04:47:28.408Z,1.23
2018-12-04T04:49:59.162Z,1.20
2018-12-04T04:52:30.464Z,1.10
2018-12-04T04:55:03.645Z,1.70
2018-12-04T04:57:33.928Z,1.00
2018-12-04T05:00:05.382Z,1.50
2018-12-04T05:02:35.755Z,1.13
2018-12-04T05:05:06.332Z,0.90
2018-12-04T05:07:36.700Z,1.30
2018-12-04T05:10:14.656Z,1.50
2018-12-04T05:12:44.915Z,1.00
2018-12-04T05:15:15.346Z,1.37
2018-12-04T05:17:48.477Z,1.50
2018-12-04T05:20:18.575Z,1.27
2018-12-04T05:22:49.139Z,1.57
2018-12-04T05:25:19.371Z,1.53
2018-12-04T05:27:49.714Z,1.27
2018-12-04T05:30:20.100Z,1.33
2018-12-04T05:32:50.026Z,1.47
2018-12-04T05:35:20.250Z,1.53
2018-12-04T05:37:50.611Z,1.93
2018-12-04T05:40:20.675Z,1.57
2018-12-04T05:42:50.929Z,1.10
2018-12-04T05:45:21.627Z,1.73
2018-12-04T05:47:51.560Z,1.17
2018-12-04T05:50:21.592Z,2.20
2018-12-04T05:54:00.849Z,1.50
2018-12-04T05:56:31.308Z,1.40
2018-12-04T05:59:01.949Z,1.30
2018-12-04T06:01:31.829Z,1.33
2018-12-04T06:04:02.027Z,1.10
2018-12-04T06:06:32.470Z,1.23
2018-12-04T06:09:03.713Z,1.43
2018-12-04T06:11:34.748Z,1.30
2018-12-04T06:14:05.278Z,1.30
2018-12-04T06:16:35.487Z,1.17
2018-12-04T06:19:05.916Z,1.53
2018-12-04T06:21:36.695Z,1.43
2018-12-04T06:24:07.322Z,1.47
2018-12-04T06:26:37.908Z,1.20
2018-12-04T06:29:08.467Z,1.07
2018-12-04T06:31:38.778Z,1.30
2018-12-04T06:34:09.421Z,1.20
2018-12-04T06:36:39.873Z,1.00
2018-12-04T06:39:10.371Z,1.60
2018-12-04T06:41:40.780Z,1.23
2018-12-04T06:44:11.203Z,1.20
2018-12-04T06:46:41.085Z,1.30
2018-12-04T06:49:11.127Z,1.27
2018-12-04T06:51:41.537Z,1.57
2018-12-04T06:54:11.309Z,1.50
2018-12-04T06:56:41.665Z,0.90
2018-12-04T06:59:12.321Z,1.40
2018-12-04T07:01:42.968Z,1.53
2018-12-04T07:04:13.155Z,1.43
2018-12-04T07:06:45.142Z,1.27
2018-12-04T07:09:16.230Z,1.00
2018-12-04T07:11:46.343Z,1.43
2018-12-04T07:14:17.067Z,1.33
2018-12-04T07:16:47.049Z,1.93
2018-12-04T07:19:17.044Z,1.13
2018-12-04T07:21:47.171Z,1.10
2018-12-04T07:24:17.357Z,1.10
2018-12-04T07:26:47.615Z,1.07
2018-12-04T07:29:18.608Z,1.27
2018-12-04T07:31:48.787Z,1.00
2018-12-04T07:34:19.605Z,1.00
2018-12-04T07:36:51.581Z,1.13
2018-12-04T07:39:22.784Z,1.10
2018-12-04T07:41:55.215Z,1.60
2018-12-04T07:44:25.732Z,1.20
2018-12-04T07:46:56.788Z,1.67
2018-12-04T07:49:28.191Z,1.10
2018-12-04T07:51:59.072Z,1.00
2018-12-04T07:54:31.230Z,1.27
2018-12-04T07:57:01.518Z,1.30
2018-12-04T07:59:32.553Z,1.00
2018-12-04T08:02:02.981Z,1.43
2018-12-04T08:04:34.701Z,1.13
2018-12-04T08:07:04.998Z,1.27
2018-12-04T08:09:36.645Z,1.17
2018-12-04T08:12:06.599Z,1.10
2018-12-04T08:14:36.924Z,1.23
2018-12-04T08:17:07.967Z,1.10
2018-12-04T08:19:39.175Z,1.30
2018-12-04T08:22:09.547Z,1.10
2018-12-04T08:24:40.131Z,1.17
2018-12-04T08:27:12.372Z,0.97
2018-12-04T08:29:42.853Z,1.30
2018-12-04T08:32:13.201Z,1.30
2018-12-04T08:34:44.113Z,1.20
2018-12-04T08:37:15.211Z,1.13
2018-12-04T08:39:46.160Z,1.10
2018-12-04T08:42:17.631Z,1.20
2018-12-04T08:49:07.642Z,1.40
2018-12-04T08:51:37.667Z,1.60
2018-12-04T08:54:07.895Z,1.27
2018-12-04T08:56:39.996Z,1.80
2018-12-04T08:59:10.164Z,1.70
2018-12-04T09:01:40.573Z,1.50
2018-12-04T09:04:11.481Z,1.33
2018-12-04T09:06:41.509Z,1.20
2018-12-04T09:09:12.821Z,1.50
2018-12-04T09:11:42.941Z,1.40
2018-12-04T09:14:13.736Z,1.57
2018-12-04T09:16:43.840Z,1.50
2018-12-04T09:19:14.366Z,1.53
2018-12-04T09:21:44.670Z,1.30
2018-12-04T09:24:15.157Z,1.40
2018-12-04T09:26:45.331Z,1.33
2018-12-04T09:29:15.994Z,1.77
2018-12-04T09:31:46.379Z,1.47
2018-12-04T09:34:17.070Z,1.70
2018-12-04T09:36:47.208Z,2.07
2018-12-04T09:39:17.390Z,1.53
2018-12-04T09:41:47.749Z,1.70
2018-12-04T09:44:20.560Z,1.53
2018-12-04T09:46:51.636Z,2.17
2018-12-04T09:49:21.528Z,1.80
2018-12-04T09:51:51.950Z,1.40
2018-12-04T09:54:21.770Z,1.40
2018-12-04T09:56:53.223Z,1.70
2018-12-04T09:59:26.174Z,1.77
2018-12-04T10:01:56.540Z,1.97
2018-12-04T10:04:29.691Z,1.80
2018-12-04T10:06:59.781Z,1.40
2018-12-04T10:09:30.420Z,1.67
2018-12-04T10:12:02.131Z,1.70
2018-12-04T10:14:32.179Z,2.00
2018-12-04T10:17:02.387Z,1.90
2018-12-04T10:19:32.668Z,2.20
2018-12-04T10:22:06.488Z,1.70
2018-12-04T10:24:38.262Z,1.70
2018-12-04T10:27:08.384Z,1.63
2018-12-04T10:29:38.759Z,1.47
2018-12-04T10:32:09.404Z,1.53
2018-12-04T10:34:39.412Z,1.77
2018-12-04T10:37:09.620Z,2.13
2018-12-04T10:39:40.349Z,1.83
2018-12-04T10:42:10.567Z,1.40
2018-12-04T10:44:41.126Z,1.83
2018-12-04T10:47:11.806Z,1.57
2018-12-04T10:49:41.830Z,1.77
2018-12-04T10:52:11.667Z,1.83
2018-12-04T10:54:41.791Z,1.60
2018-12-04T10:57:12.038Z,1.50
2018-12-04T10:59:42.195Z,1.83
2018-12-04T11:02:17.246Z,1.80
2018-12-04T11:04:47.109Z,1.90
2018-12-04T11:07:17.194Z,1.73
2018-12-04T11:09:47.589Z,1.70
2018-12-04T11:12:18.410Z,1.57
2018-12-04T11:14:49.772Z,1.20
2018-12-04T11:17:19.656Z,1.37
2018-12-04T11:19:49.681Z,2.00
2018-12-04T11:22:20.320Z,1.77
2018-12-04T11:24:50.214Z,1.77
2018-12-04T11:27:20.432Z,1.90
2018-12-04T11:29:50.879Z,1.80
2018-12-04T11:32:21.046Z,2.00
2018-12-04T11:34:51.227Z,1.97
2018-12-04T11:37:21.701Z,1.80
2018-12-04T11:39:52.633Z,1.53
2018-12-04T11:42:22.633Z,2.00
2018-12-04T11:44:52.884Z,2.10
2018-12-04T11:47:23.240Z,1.83
2018-12-04T11:49:53.073Z,1.40
2018-12-04T11:52:23.251Z,1.80
2018-12-04T11:54:54.354Z,1.70
2018-12-04T11:57:24.349Z,1.60
2018-12-04T11:59:54.971Z,1.63
2018-12-04T12:02:24.989Z,1.83
2018-12-04T12:04:55.520Z,1.93
2018-12-04T12:07:25.895Z,2.07
2018-12-04T12:09:55.885Z,1.40
2018-12-04T12:12:25.728Z,1.70
2018-12-04T12:14:55.934Z,2.10
2018-12-04T12:22:55.588Z,1.63
2018-12-04T12:25:26.063Z,2.33
2018-12-04T12:27:56.270Z,2.40
2018-12-04T12:30:27.008Z,3.07
2018-12-04T12:32:58.283Z,2.27
2018-12-04T12:35:29.945Z,2.03
2018-12-04T12:38:00.904Z,2.00
2018-12-04T12:40:31.936Z,2.23
2018-12-04T12:43:01.895Z,1.90
2018-12-04T12:45:31.918Z,2.10
2018-12-04T12:48:02.265Z,1.73
2018-12-04T12:50:32.451Z,2.70
2018-12-04T12:53:02.832Z,2.17
2018-12-04T12:55:33.800Z,1.53
2018-12-04T12:58:04.814Z,2.27
2018-12-04T13:00:36.218Z,2.10
2018-12-04T13:03:06.273Z,2.00
2018-12-04T13:05:41.492Z,2.03
2018-12-04T13:08:20.072Z,1.93
2018-12-04T13:10:53.455Z,2.10
2018-12-04T13:13:29.116Z,2.10
2018-12-04T13:16:01.566Z,2.00
2018-12-04T13:18:31.930Z,2.10
2018-12-04T13:21:02.188Z,2.07
2018-12-04T13:23:32.197Z,1.70
2018-12-04T13:26:03.455Z,2.03
2018-12-04T13:28:33.493Z,1.90
2018-12-04T13:31:04.201Z,1.63
2018-12-04T13:33:34.082Z,2.13
2018-12-04T13:36:08.790Z,1.77
2018-12-04T13:38:39.919Z,1.70
2018-12-04T13:41:13.192Z,1.83
2018-12-04T13:43:43.196Z,1.80
2018-12-04T13:46:13.874Z,1.50
2018-12-04T13:48:43.767Z,2.00
2018-12-04T13:51:14.395Z,1.70
2018-12-04T13:53:44.713Z,1.80
2018-12-04T13:56:14.836Z,1.80
2018-12-04T13:58:48.970Z,1.73
2018-12-04T14:01:19.289Z,2.23
2018-12-04T14:03:49.281Z,1.80
2018-12-04T14:06:19.433Z,1.73
2018-12-04T14:08:49.410Z,2.17
2018-12-04T14:11:19.938Z,2.77
2018-12-04T14:13:50.094Z,1.53
2018-12-04T14:16:20.489Z,1.43
2018-12-04T14:18:51.345Z,1.07
2018-12-04T14:21:22.280Z,1.40
2018-12-04T14:23:52.776Z,1.47
2018-12-04T14:26:22.653Z,1.10
2018-12-04T14:28:52.760Z,1.50
2018-12-04T14:31:22.894Z,1.57
2018-12-04T14:33:53.361Z,1.20
2018-12-04T14:36:23.807Z,1.30
2018-12-04T14:38:54.811Z,1.83
2018-12-04T14:41:25.669Z,1.30
2018-12-04T14:43:55.681Z,1.20
2018-12-04T14:46:26.583Z,1.70
2018-12-04T14:48:56.551Z,2.03
2018-12-04T14:51:26.567Z,1.70
2018-12-04T14:53:56.511Z,1.53
2018-12-04T14:56:27.788Z,1.70
2018-12-04T14:58:58.045Z,1.20
2018-12-04T15:01:29.682Z,1.57
2018-12-04T15:04:01.417Z,2.10
2018-12-04T15:06:33.741Z,1.60
2018-12-04T15:09:06.079Z,1.70
2018-12-04T15:11:36.573Z,1.20
2018-12-04T15:14:06.783Z,1.87
2018-12-04T15:16:37.314Z,1.70
2018-12-04T15:19:07.247Z,1.70
2018-12-04T15:21:37.225Z,2.33
2018-12-04T15:24:11.376Z,2.30
2018-12-04T15:26:42.052Z,2.30
2018-12-04T15:29:14.419Z,1.80
2018-12-04T15:31:44.620Z,2.17
2018-12-04T15:34:14.746Z,2.17
2018-12-04T15:36:45.228Z,2.00
2018-12-04T15:39:17.475Z,2.10
2018-12-04T15:41:48.439Z,1.90
2018-12-04T15:44:19.254Z,1.60
2018-12-04T15:46:52.838Z,2.40
2018-12-04T15:49:23.381Z,1.80
2018-12-04T15:51:54.854Z,2.37
2018-12-04T15:54:26.326Z,1.77
2018-12-04T15:56:57.979Z,2.13
2018-12-04T15:59:29.576Z,2.60
2018-12-04T16:02:08.902Z,2.10
2018-12-04T16:04:45.454Z,1.90
2018-12-04T16:07:27.927Z,2.40
2018-12-04T16:12:41.451Z,2.30
2018-12-04T16:15:11.570Z,2.20
2018-12-04T16:17:43.684Z,3.00
2018-12-04T16:20:15.845Z,2.50
2018-12-04T16:22:46.411Z,2.33
2018-12-04T16:25:18.205Z,1.90
2018-12-04T16:27:48.950Z,2.53
2018-12-04T16:33:02.929Z,2.90
2018-12-04T16:35:33.061Z,2.63
2018-12-04T16:38:03.126Z,3.17
2018-12-04T16:40:33.785Z,2.80
2018-12-04T16:43:04.590Z,2.20
2018-12-04T16:45:34.959Z,2.50
2018-12-04T16:48:05.123Z,2.47
2018-12-04T16:50:35.541Z,3.17
2018-12-04T16:53:05.992Z,2.47
2018-12-04T16:55:36.558Z,2.10
2018-12-04T16:58:06.988Z,2.47
2018-12-04T17:00:38.465Z,1.73
2018-12-04T17:03:10.232Z,2.20
2018-12-04T17:05:40.231Z,2.20
2018-12-04T17:08:10.798Z,1.93
2018-12-04T17:10:41.007Z,2.20
2018-12-04T17:13:11.201Z,1.93
2018-12-04T17:15:41.311Z,1.77
2018-12-04T17:18:13.629Z,2.03
2018-12-04T17:20:44.863Z,2.30
2018-12-04T17:23:14.910Z,2.03
2018-12-04T17:25:45.859Z,2.80
2018-12-04T17:28:18.724Z,2.37
2018-12-04T17:30:50.628Z,2.03
2018-12-04T17:33:22.655Z,2.27
2018-12-04T17:35:53.221Z,2.57
2018-12-04T17:38:23.233Z,2.93
2018-12-04T17:40:53.305Z,3.10
2018-12-04T17:43:24.078Z,3.10
2018-12-04T17:45:54.058Z,2.33
2018-12-04T17:48:25.401Z,2.60
2018-12-04T17:50:55.947Z,2.30
2018-12-04T17:53:27.437Z,2.80
2018-12-04T17:55:58.721Z,2.73
2018-12-04T17:58:30.303Z,2.33
2018-12-04T18:01:00.873Z,2.90
2018-12-04T18:03:31.268Z,2.60
2018-12-04T18:06:04.405Z,2.77
2018-12-04T18:08:37.653Z,2.60
2018-12-04T18:11:19.795Z,2.30
2018-12-04T18:14:04.227Z,2.27
2018-12-04T18:16:35.712Z,2.83
2018-12-04T18:19:09.804Z,3.40
2018-12-04T18:21:42.182Z,3.70
2018-12-04T18:24:16.747Z,2.90
2018-12-04T18:26:48.140Z,2.57
2018-12-04T18:29:19.970Z,3.97
2018-12-04T18:31:49.951Z,4.23
2018-12-04T18:34:20.084Z,3.20
2018-12-04T18:36:50.464Z,3.40
2018-12-04T18:39:20.440Z,4.03
2018-12-04T18:41:50.636Z,3.33
2018-12-04T18:44:21.384Z,3.60
2018-12-04T18:46:51.636Z,4.20
2018-12-04T18:49:21.729Z,3.37
2018-12-04T18:51:52.688Z,4.13
2018-12-04T18:54:22.864Z,3.80
2018-12-04T18:56:53.665Z,3.40
2018-12-04T18:59:24.085Z,3.70
2018-12-04T19:01:54.057Z,4.50
2018-12-04T19:04:24.200Z,4.10
2018-12-04T19:06:54.682Z,3.23
2018-12-04T19:09:25.865Z,3.70
2018-12-04T19:11:56.262Z,3.90
2018-12-04T19:14:26.173Z,3.90
2018-12-04T19:16:56.515Z,3.80
2018-12-04T19:19:27.254Z,4.23
2018-12-04T19:21:57.291Z,4.07
2018-12-04T19:24:27.262Z,3.53
2018-12-04T19:26:58.350Z,4.63
2018-12-04T19:29:29.205Z,3.70
2018-12-04T19:31:59.698Z,4.03
2018-12-04T19:34:31.356Z,4.00
2018-12-04T19:37:03.360Z,5.73
2018-12-04T19:39:35.058Z,4.73
2018-12-04T19:42:05.746Z,4.77
2018-12-04T19:44:36.445Z,4.53
2018-12-04T19:47:08.550Z,4.17
2018-12-04T19:49:40.184Z,3.97
2018-12-04T19:52:10.521Z,4.33
2018-12-04T19:54:42.815Z,4.40
2018-12-04T19:57:12.996Z,3.97
2018-12-04T19:59:43.308Z,4.13
2018-12-04T20:02:13.942Z,4.90
2018-12-04T20:04:43.917Z,4.60
2018-12-04T20:07:14.915Z,4.20
2018-12-04T20:09:45.640Z,4.23
2018-12-04T20:12:18.987Z,4.20
2018-12-04T20:14:50.326Z,4.77
2018-12-04T20:17:20.371Z,4.07
2018-12-04T20:19:51.276Z,4.20
2018-12-04T20:22:21.987Z,4.30
2018-12-04T20:24:53.266Z,4.10
2018-12-04T20:27:23.679Z,3.50
2018-12-04T20:29:54.091Z,4.57
2018-12-04T20:32:25.585Z,4.13
2018-12-04T20:34:55.553Z,3.37
2018-12-04T20:37:25.549Z,4.17
2018-12-04T20:39:56.879Z,3.73
2018-12-04T20:42:26.807Z,4.23
2018-12-04T20:44:57.819Z,3.43
2018-12-04T20:47:27.701Z,4.13
2018-12-04T20:49:58.004Z,4.20
2018-12-04T20:52:27.972Z,3.33
2018-12-04T20:54:58.567Z,4.20
2018-12-04T20:57:28.498Z,3.80
2018-12-04T20:59:58.994Z,3.80
2018-12-04T21:02:29.042Z,5.77
2018-12-04T21:05:00.702Z,4.07
2018-12-04T21:07:30.750Z,3.60
2018-12-04T21:10:01.027Z,3.60
2018-12-04T21:12:32.089Z,3.53
2018-12-04T21:15:03.121Z,3.60
2018-12-04T21:17:33.328Z,3.40
2018-12-04T21:20:04.370Z,3.97
2018-12-04T21:22:35.980Z,3.70
2018-12-04T21:25:08.162Z,4.20
2018-12-04T21:27:43.055Z,4.00
2018-12-04T21:30:18.252Z,3.87
2018-12-04T21:32:53.159Z,3.60
2018-12-04T21:35:28.094Z,3.73
2018-12-04T21:38:04.097Z,3.85
2018-12-04T21:40:39.480Z,3.33
2018-12-04T21:43:14.487Z,3.60
2018-12-04T21:45:50.383Z,3.80
2018-12-04T21:48:24.201Z,3.52
2018-12-04T21:50:55.303Z,3.80
2018-12-04T21:53:26.091Z,3.53
2018-12-04T21:55:57.214Z,4.70
2018-12-04T21:58:29.967Z,3.63
2018-12-04T22:01:00.391Z,3.93
2018-12-04T22:03:31.079Z,3.37
2018-12-04T22:06:01.916Z,3.70
2018-12-04T22:08:32.419Z,3.50
2018-12-04T22:11:03.615Z,3.67
2018-12-04T22:13:34.194Z,3.57
2018-12-04T22:16:04.419Z,4.07
2018-12-04T22:18:35.003Z,3.83
2018-12-04T22:21:05.425Z,3.80
2018-12-04T22:23:36.148Z,4.13
2018-12-04T22:26:10.192Z,4.25
2018-12-04T22:28:40.360Z,3.60
2018-12-04T22:31:10.565Z,3.02
2018-12-04T22:33:41.478Z,4.08
2018-12-04T22:36:12.453Z,3.73
2018-12-04T22:38:42.742Z,3.95
2018-12-04T22:41:14.168Z,3.60
2018-12-04T22:43:44.531Z,3.47
2018-12-04T22:46:15.163Z,4.17
2018-12-04T22:48:45.588Z,3.30
2018-12-04T22:51:16.989Z,3.33
2018-12-04T22:53:46.864Z,3.80
2018-12-04T22:56:17.105Z,3.72
2018-12-04T22:58:47.479Z,4.20
2018-12-04T23:01:30.418Z,3.60
2018-12-04T23:04:00.708Z,4.35
2018-12-04T23:06:30.641Z,3.60
2018-12-04T23:09:00.588Z,4.12
2018-12-04T23:11:31.805Z,3.47
2018-12-04T23:14:01.827Z,4.35
2018-12-04T23:16:32.208Z,3.50
2018-12-04T23:19:02.912Z,3.33
2018-12-04T23:21:33.510Z,3.40
2018-12-04T23:24:03.892Z,3.30
2018-12-04T23:26:34.456Z,3.70
2018-12-04T23:29:06.027Z,3.10
2018-12-04T23:31:36.523Z,2.92
2018-12-04T23:34:07.367Z,2.62
2018-12-04T23:36:37.434Z,2.87
2018-12-04T23:39:09.527Z,3.17
2018-12-04T23:41:39.938Z,2.90
2018-12-04T23:44:10.100Z,2.75
2018-12-04T23:46:40.628Z,3.00
2018-12-04T23:49:12.300Z,3.10
2018-12-04T23:51:42.564Z,2.83
2018-12-04T23:54:13.314Z,3.15
2018-12-04T23:56:43.674Z,3.62
2018-12-04T23:59:13.707Z,2.52
